Time;durP1;ratioP1;P1;durP2;ratioP2;P2;SDS_P1;SDS_P2;PMS_P1;PMS_P2;Temp;Humidity;BMP_temperature;BMP_pressure;BME280_temperature;BME280_humidity;BME280_pressure;Samples;Min_cycle;Max_cycle;Signal;HPM_P1;HPM_P2
2022/12/01 00:00:27;;;;;;;3.85;2.60;;;;;;;;;;5061472;28;20049;-75
2022/12/01 00:03:13;;;;;;;3.45;2.45;;;;;;;;;;5070465;28;20477;-76
2022/12/01 00:06:12;;;;;;;3.35;1.70;;;;;;;;;;5058511;28;20045;-76
2022/12/01 00:12:01;;;;;;;2.72;1.85;;;;;;;;;;5068805;28;20048;-77
2022/12/01 00:14:53;;;;;;;3.88;2.13;;;;;;;;;;5062567;28;20041;-77
2022/12/01 00:17:42;;;;;;;2.13;1.70;;;;;;;;;;5065841;28;20481;-77
2022/12/01 00:20:29;;;;;;;2.53;1.75;;;;;;;;;;5060517;28;20036;-75
2022/12/01 00:23:14;;;;;;;2.83;1.25;;;;;;;;;;5059083;28;20501;-77
2022/12/01 00:26:04;;;;;;;3.30;1.90;;;;;;;;;;5064098;28;20045;-76
2022/12/01 00:28:51;;;;;;;1.73;1.38;;;;;;;;;;5067207;28;20037;-74
2022/12/01 00:31:36;;;;;;;2.47;1.95;;;;;;;;;;5071498;28;20037;-76
2022/12/01 00:34:24;;;;;;;4.47;2.10;;;;;;;;;;5067771;28;20052;-76
2022/12/01 00:37:09;;;;;;;7.88;3.83;;;;;;;;;;5071616;28;20037;-76
2022/12/01 00:39:56;;;;;;;3.33;2.33;;;;;;;;;;5066589;28;20053;-78
2022/12/01 00:42:42;;;;;;;13.43;6.90;;;;;;;;;;5071504;28;20041;-77
2022/12/01 00:45:28;;;;;;;8.65;5.78;;;;;;;;;;5062901;28;20048;-76
2022/12/01 00:48:13;;;;;;;123.07;64.53;;;;;;;;;;5061456;28;20045;-77
2022/12/01 00:50:59;;;;;;;4.57;2.30;;;;;;;;;;5055268;28;20045;-77
2022/12/01 00:53:44;;;;;;;1.95;1.30;;;;;;;;;;5055950;28;20389;-77
2022/12/01 00:56:30;;;;;;;1.92;1.42;;;;;;;;;;5053647;28;20045;-77
2022/12/01 00:59:17;;;;;;;1.77;1.55;;;;;;;;;;5055253;28;20037;-77
2022/12/01 01:02:04;;;;;;;2.45;1.52;;;;;;;;;;5056220;28;20048;-76
2022/12/01 01:04:50;;;;;;;3.30;1.80;;;;;;;;;;5062529;28;20045;-76
2022/12/01 01:07:35;;;;;;;1.90;1.45;;;;;;;;;;5055608;28;20041;-75
2022/12/01 01:10:21;;;;;;;1.65;1.40;;;;;;;;;;5056451;28;20041;-76
2022/12/01 01:13:13;;;;;;;1.88;1.38;;;;;;;;;;5058567;28;20049;-75
2022/12/01 01:16:04;;;;;;;3.08;2.00;;;;;;;;;;5056141;28;20410;-76
2022/12/01 01:18:50;;;;;;;1.60;1.30;;;;;;;;;;5053794;28;20459;-76
2022/12/01 01:21:35;;;;;;;2.13;1.65;;;;;;;;;;5053354;28;20049;-77
2022/12/01 01:24:21;;;;;;;2.20;1.48;;;;;;;;;;5053272;28;20049;-77
2022/12/01 01:27:06;;;;;;;6.30;2.78;;;;;;;;;;5053286;28;20049;-76
2022/12/01 01:29:52;;;;;;;2.60;1.70;;;;;;;;;;5052895;28;20036;-77
2022/12/01 01:32:38;;;;;;;2.70;1.83;;;;;;;;;;5053336;28;20049;-77
2022/12/01 01:35:24;;;;;;;3.05;2.35;;;;;;;;;;5053355;28;20045;-76
2022/12/01 01:38:10;;;;;;;2.97;1.60;;;;;;;;;;5052768;28;20049;-78
2022/12/01 01:40:55;;;;;;;3.92;2.40;;;;;;;;;;5053017;28;20506;-77
2022/12/01 01:43:49;;;;;;;1.77;1.50;;;;;;;;;;5052453;28;20041;-77
2022/12/01 01:46:35;;;;;;;1.38;1.25;;;;;;;;;;5053109;28;20037;-77
2022/12/01 01:49:20;;;;;;;2.08;1.60;;;;;;;;;;5053230;28;20057;-78
2022/12/01 01:52:06;;;;;;;1.42;1.25;;;;;;;;;;5052622;28;20041;-77
2022/12/01 01:54:53;;;;;;;3.28;2.08;;;;;;;;;;5053067;28;20489;-77
2022/12/01 01:57:40;;;;;;;3.97;2.40;;;;;;;;;;5052872;28;20501;-77
2022/12/01 02:00:26;;;;;;;3.35;2.38;;;;;;;;;;5052878;28;20044;-76
2022/12/01 02:03:15;;;;;;;3.97;2.05;;;;;;;;;;5053274;28;20041;-75
2022/12/01 02:06:01;;;;;;;2.35;1.63;;;;;;;;;;5059328;28;20481;-77
2022/12/01 02:08:46;;;;;;;1.73;1.50;;;;;;;;;;5053031;28;20478;-77
2022/12/01 02:11:47;;;;;;;2.05;1.70;;;;;;;;;;5052984;28;20049;-78
2022/12/01 02:15:00;;;;;;;1.65;1.55;;;;;;;;;;5052823;28;20052;-77
2022/12/01 02:18:07;;;;;;;1.15;1.05;;;;;;;;;;5056549;28;20049;-76
2022/12/01 02:20:55;;;;;;;2.08;1.52;;;;;;;;;;5055685;28;20049;-77
2022/12/01 02:24:18;;;;;;;2.00;1.60;;;;;;;;;;5056596;28;20041;-76
2022/12/01 02:27:24;;;;;;;1.77;1.45;;;;;;;;;;5055811;28;20048;-77
2022/12/01 02:30:31;;;;;;;3.28;2.20;;;;;;;;;;5082008;28;20048;-76
2022/12/01 02:33:32;;;;;;;2.53;1.90;;;;;;;;;;5056992;28;20041;-76
2022/12/01 02:36:39;;;;;;;2.40;2.20;;;;;;;;;;5056098;28;20045;-77
2022/12/01 02:39:41;;;;;;;1.35;1.25;;;;;;;;;;5056354;28;20041;-77
2022/12/01 02:42:48;;;;;;;3.05;1.67;;;;;;;;;;5061192;28;20061;-77
2022/12/01 02:45:48;;;;;;;6.47;3.20;;;;;;;;;;5056420;28;20045;-77
2022/12/01 02:48:38;;;;;;;2.70;2.25;;;;;;;;;;5056121;28;20052;-76
2022/12/01 02:51:29;;;;;;;5.13;2.72;;;;;;;;;;5056406;28;20041;-77
2022/12/01 02:54:14;;;;;;;3.35;1.95;;;;;;;;;;5057156;28;20041;-79
2022/12/01 02:57:00;;;;;;;1.85;1.55;;;;;;;;;;5063247;28;20053;-77
2022/12/01 02:59:52;;;;;;;2.17;1.85;;;;;;;;;;5056537;28;20045;-76
2022/12/01 03:02:50;;;;;;;1.20;1.10;;;;;;;;;;5055784;28;20485;-78
2022/12/01 03:06:09;;;;;;;1.60;1.48;;;;;;;;;;5056180;28;20037;-77
2022/12/01 03:09:08;;;;;;;1.70;1.33;;;;;;;;;;5063305;28;20048;-78
2022/12/01 03:12:25;;;;;;;2.22;1.75;;;;;;;;;;5055636;28;20057;-77
2022/12/01 03:15:34;;;;;;;1.50;1.40;;;;;;;;;;5062276;28;20057;-77
2022/12/01 03:18:30;;;;;;;2.65;1.50;;;;;;;;;;5055180;28;20053;-78
2022/12/01 03:21:53;;;;;;;1.25;1.15;;;;;;;;;;5055052;28;20041;-77
2022/12/01 03:24:42;;;;;;;1.20;1.10;;;;;;;;;;5055572;28;20045;-77
2022/12/01 03:27:33;;;;;;;0.95;0.95;;;;;;;;;;5054972;28;20037;-77
2022/12/01 03:30:18;;;;;;;1.58;1.30;;;;;;;;;;5054828;28;20494;-77
2022/12/01 03:33:08;;;;;;;2.47;1.50;;;;;;;;;;5055312;28;20040;-76
2022/12/01 03:36:26;;;;;;;2.10;1.33;;;;;;;;;;5061871;28;20049;-77
2022/12/01 03:39:19;;;;;;;1.23;1.13;;;;;;;;;;5062038;28;20041;-76
2022/12/01 03:42:41;;;;;;;1.40;1.30;;;;;;;;;;5061374;28;20053;-78
2022/12/01 03:45:57;;;;;;;1.65;1.38;;;;;;;;;;5065376;28;20056;-77
2022/12/01 03:48:42;;;;;;;1.40;1.30;;;;;;;;;;5065067;28;20060;-76
2022/12/01 03:51:35;;;;;;;1.92;1.30;;;;;;;;;;5065988;28;20045;-76
2022/12/01 03:54:46;;;;;;;0.90;0.90;;;;;;;;;;5054905;28;20041;-76
2022/12/01 03:57:39;;;;;;;1.20;1.10;;;;;;;;;;5059375;28;20048;-75
2022/12/01 04:00:25;;;;;;;1.52;1.38;;;;;;;;;;5060931;28;20044;-77
2022/12/01 04:03:17;;;;;;;1.10;1.08;;;;;;;;;;5056116;28;20037;-76
2022/12/01 04:06:03;;;;;;;1.40;1.23;;;;;;;;;;5057692;28;20045;-77
2022/12/01 04:08:49;;;;;;;1.80;1.50;;;;;;;;;;5061102;28;20394;-76
2022/12/01 04:14:38;;;;;;;2.08;1.60;;;;;;;;;;5060929;28;20052;-77
2022/12/01 04:17:24;;;;;;;2.08;1.15;;;;;;;;;;5054286;28;20045;-77
2022/12/01 04:20:12;;;;;;;0.90;0.90;;;;;;;;;;5055145;28;20045;-76
2022/12/01 04:22:57;;;;;;;1.20;0.90;;;;;;;;;;5054772;28;20045;-77
2022/12/01 04:25:42;;;;;;;1.40;1.30;;;;;;;;;;5054080;28;20041;-76
2022/12/01 04:28:28;;;;;;;1.95;1.00;;;;;;;;;;5061863;28;20502;-75
2022/12/01 04:31:15;;;;;;;1.00;1.00;;;;;;;;;;5056687;28;20036;-75
2022/12/01 04:34:01;;;;;;;1.13;1.08;;;;;;;;;;5039413;28;20052;-76
2022/12/01 04:36:46;;;;;;;1.60;1.20;;;;;;;;;;5055717;28;20514;-76
2022/12/01 04:39:33;;;;;;;1.08;0.98;;;;;;;;;;5054979;28;20041;-77
2022/12/01 04:42:18;;;;;;;2.72;1.40;;;;;;;;;;5059885;28;20045;-76
2022/12/01 04:45:04;;;;;;;1.63;1.30;;;;;;;;;;5067235;28;20045;-76
2022/12/01 04:47:53;;;;;;;1.70;1.30;;;;;;;;;;5065234;28;20053;-75
2022/12/01 04:50:40;;;;;;;1.30;1.20;;;;;;;;;;5054258;28;20048;-77
2022/12/01 04:53:26;;;;;;;2.83;1.67;;;;;;;;;;5053688;28;20041;-76
2022/12/01 04:56:11;;;;;;;3.63;2.22;;;;;;;;;;5054964;28;20041;-75
2022/12/01 04:58:58;;;;;;;1.40;1.30;;;;;;;;;;5061500;28;20049;-75
2022/12/01 05:01:45;;;;;;;2.80;1.88;;;;;;;;;;5056320;28;20045;-75
2022/12/01 05:04:32;;;;;;;3.83;1.88;;;;;;;;;;5055368;28;20481;-75
2022/12/01 05:07:17;;;;;;;3.40;2.05;;;;;;;;;;5056483;28;20386;-76
2022/12/01 05:10:04;;;;;;;5.45;1.73;;;;;;;;;;5053334;28;20037;-76
2022/12/01 05:12:49;;;;;;;2.50;1.50;;;;;;;;;;5053378;28;20045;-77
2022/12/01 05:15:34;;;;;;;4.45;1.70;;;;;;;;;;5053441;28;20038;-77
2022/12/01 05:18:20;;;;;;;2.53;1.63;;;;;;;;;;5053417;28;20160;-77
2022/12/01 05:21:07;;;;;;;1.85;1.55;;;;;;;;;;5053855;28;20041;-75
2022/12/01 05:23:53;;;;;;;6.10;2.40;;;;;;;;;;5059703;28;20045;-77
2022/12/01 05:26:40;;;;;;;3.60;2.55;;;;;;;;;;5053357;28;20474;-76
2022/12/01 05:29:25;;;;;;;9.68;4.85;;;;;;;;;;5053608;28;20045;-76
2022/12/01 05:32:10;;;;;;;6.28;2.90;;;;;;;;;;5052887;28;20045;-75
2022/12/01 05:34:56;;;;;;;3.15;1.85;;;;;;;;;;5060445;28;20044;-78
2022/12/01 05:37:42;;;;;;;4.68;2.50;;;;;;;;;;5053435;28;20053;-77
2022/12/01 05:40:29;;;;;;;2.97;1.83;;;;;;;;;;5053599;28;20044;-75
2022/12/01 05:43:14;;;;;;;1.80;1.30;;;;;;;;;;5057545;28;20044;-76
2022/12/01 05:45:58;;;;;;;2.03;1.48;;;;;;;;;;5063787;28;20045;-76
2022/12/01 05:48:44;;;;;;;1.17;1.10;;;;;;;;;;5066256;28;20045;-77
2022/12/01 05:51:30;;;;;;;2.78;1.38;;;;;;;;;;5064933;28;20049;-77
2022/12/01 05:54:15;;;;;;;1.27;1.17;;;;;;;;;;5056197;28;20049;-76
2022/12/01 05:57:01;;;;;;;2.83;1.90;;;;;;;;;;5057112;28;20053;-77
2022/12/01 05:59:46;;;;;;;2.30;1.52;;;;;;;;;;5055609;28;20045;-77
2022/12/01 06:02:32;;;;;;;3.13;1.48;;;;;;;;;;5055932;28;20427;-77
2022/12/01 06:05:17;;;;;;;3.67;2.03;;;;;;;;;;5056940;28;20045;-77
2022/12/01 06:08:03;;;;;;;2.55;1.75;;;;;;;;;;5057177;28;20037;-76
2022/12/01 06:10:49;;;;;;;1.88;1.58;;;;;;;;;;5058557;28;20401;-76
2022/12/01 06:13:34;;;;;;;3.13;2.05;;;;;;;;;;5056281;28;20040;-76
2022/12/01 06:16:20;;;;;;;1.85;1.67;;;;;;;;;;5057036;28;20049;-74
2022/12/01 06:19:05;;;;;;;2.08;1.40;;;;;;;;;;5063977;28;20041;-77
2022/12/01 06:21:51;;;;;;;2.83;1.80;;;;;;;;;;5058036;28;20057;-75
2022/12/01 06:24:37;;;;;;;6.03;3.50;;;;;;;;;;5063241;28;20045;-74
2022/12/01 06:27:23;;;;;;;3.20;2.38;;;;;;;;;;5062999;28;20041;-77
2022/12/01 06:30:08;;;;;;;4.18;2.70;;;;;;;;;;5055829;28;20410;-77
2022/12/01 06:32:54;;;;;;;2.40;1.60;;;;;;;;;;5062874;28;20048;-77
2022/12/01 06:35:39;;;;;;;4.18;2.50;;;;;;;;;;5055841;28;20041;-75
2022/12/01 06:38:25;;;;;;;4.85;2.97;;;;;;;;;;5063025;28;20049;-76
2022/12/01 06:41:10;;;;;;;6.38;3.15;;;;;;;;;;5056008;28;20045;-76
2022/12/01 06:43:56;;;;;;;9.05;3.28;;;;;;;;;;5056695;28;20045;-75
2022/12/01 06:46:41;;;;;;;5.60;2.50;;;;;;;;;;5062730;28;20048;-76
2022/12/01 06:49:27;;;;;;;2.85;2.40;;;;;;;;;;5055611;28;20045;-76
2022/12/01 06:52:13;;;;;;;3.40;2.33;;;;;;;;;;5055697;28;20045;-74
2022/12/01 06:54:59;;;;;;;4.50;2.65;;;;;;;;;;5062027;28;20056;-74
2022/12/01 06:57:44;;;;;;;2.83;1.90;;;;;;;;;;5072284;28;20045;-77
2022/12/01 07:00:30;;;;;;;3.42;2.22;;;;;;;;;;5075975;28;20045;-75
2022/12/01 07:03:15;;;;;;;5.68;3.45;;;;;;;;;;5054964;28;20052;-76
2022/12/01 07:06:01;;;;;;;7.80;2.83;;;;;;;;;;5056425;28;20045;-75
2022/12/01 07:08:46;;;;;;;4.53;2.55;;;;;;;;;;5055423;28;20033;-76
2022/12/01 07:11:34;;;;;;;5.75;3.70;;;;;;;;;;5061536;28;20045;-76
2022/12/01 07:14:23;;;;;;;4.85;2.88;;;;;;;;;;5055125;28;20057;-75
2022/12/01 07:17:09;;;;;;;4.93;3.15;;;;;;;;;;5055031;28;20045;-77
2022/12/01 07:19:55;;;;;;;11.70;3.15;;;;;;;;;;5054391;28;20041;-76
2022/12/01 07:22:41;;;;;;;4.82;3.03;;;;;;;;;;5054424;28;20045;-77
2022/12/01 07:25:27;;;;;;;3.40;2.35;;;;;;;;;;5054472;28;20041;-75
2022/12/01 07:28:12;;;;;;;3.60;2.45;;;;;;;;;;5055359;28;20057;-75
2022/12/01 07:31:10;;;;;;;4.45;2.97;;;;;;;;;;5061498;28;20049;-77
2022/12/01 07:33:55;;;;;;;9.90;3.90;;;;;;;;;;5045523;28;20041;-74
2022/12/01 07:36:41;;;;;;;5.40;2.60;;;;;;;;;;5061646;28;20049;-74
2022/12/01 07:39:26;;;;;;;7.25;3.63;;;;;;;;;;5054641;28;20053;-77
2022/12/01 07:42:12;;;;;;;11.65;4.65;;;;;;;;;;5055142;28;20037;-76
2022/12/01 07:44:57;;;;;;;6.97;3.83;;;;;;;;;;5054604;28;20041;-76
2022/12/01 07:47:43;;;;;;;5.78;3.47;;;;;;;;;;5054179;28;20045;-77
2022/12/01 07:50:29;;;;;;;6.68;3.50;;;;;;;;;;5061468;28;20049;-76
2022/12/01 07:53:14;;;;;;;5.00;2.83;;;;;;;;;;5061081;28;20041;-78
2022/12/01 07:56:00;;;;;;;7.65;3.72;;;;;;;;;;5054222;28;20045;-76
2022/12/01 07:58:45;;;;;;;2.55;1.83;;;;;;;;;;5055570;28;20049;-77
2022/12/01 08:01:31;;;;;;;5.15;2.97;;;;;;;;;;5055427;28;20049;-78
2022/12/01 08:04:17;;;;;;;8.38;5.43;;;;;;;;;;5054982;28;20486;-77
2022/12/01 08:07:02;;;;;;;6.30;4.57;;;;;;;;;;5054946;28;20045;-74
2022/12/01 08:09:48;;;;;;;9.55;5.18;;;;;;;;;;5061049;28;20045;-76
2022/12/01 08:12:33;;;;;;;12.57;7.10;;;;;;;;;;5054435;28;20490;-76
2022/12/01 08:15:19;;;;;;;5.88;3.58;;;;;;;;;;5061441;28;20560;-76
2022/12/01 08:18:05;;;;;;;7.28;3.55;;;;;;;;;;5055294;28;20041;-76
2022/12/01 08:20:50;;;;;;;4.57;2.65;;;;;;;;;;5053846;28;20045;-75
2022/12/01 08:23:36;;;;;;;9.50;3.40;;;;;;;;;;5060088;28;20071;-75
2022/12/01 08:26:23;;;;;;;6.05;4.03;;;;;;;;;;5054093;28;20048;-76
2022/12/01 08:29:08;;;;;;;5.22;3.50;;;;;;;;;;5059807;28;20398;-76
2022/12/01 08:31:57;;;;;;;3.67;2.53;;;;;;;;;;5053638;28;20057;-75
2022/12/01 08:34:42;;;;;;;7.18;4.88;;;;;;;;;;5054247;28;20041;-75
2022/12/01 08:37:28;;;;;;;6.15;4.22;;;;;;;;;;5053419;28;20390;-75
2022/12/01 08:40:13;;;;;;;22.60;13.73;;;;;;;;;;5054428;28;20045;-76
2022/12/01 08:42:59;;;;;;;17.60;9.10;;;;;;;;;;5053191;28;20491;-76
2022/12/01 08:45:46;;;;;;;9.40;5.05;;;;;;;;;;5053250;28;20045;-76
2022/12/01 08:48:31;;;;;;;6.75;3.85;;;;;;;;;;5053737;28;20041;-77
2022/12/01 08:51:17;;;;;;;5.65;2.83;;;;;;;;;;5038312;28;20040;-77
2022/12/01 08:54:04;;;;;;;7.15;3.67;;;;;;;;;;5038589;28;20049;-76
2022/12/01 08:56:49;;;;;;;8.98;4.68;;;;;;;;;;5053487;28;20044;-77
2022/12/01 08:59:34;;;;;;;7.03;3.92;;;;;;;;;;5053492;28;20394;-78
2022/12/01 09:02:23;;;;;;;11.02;5.45;;;;;;;;;;5053879;28;20040;-78
2022/12/01 09:05:09;;;;;;;16.90;9.02;;;;;;;;;;5051570;28;20045;-77
2022/12/01 09:08:29;;;;;;;8.93;6.15;;;;;;;;;;5053493;28;20045;-76
2022/12/01 09:11:06;;;;;;;8.30;5.57;;;;;;;;;;5065725;28;20041;-77
2022/12/01 09:13:52;;;;;;;10.10;6.57;;;;;;;;;;5066189;28;20049;-77
2022/12/01 09:16:37;;;;;;;13.60;7.40;;;;;;;;;;5053371;28;20037;-78
2022/12/01 09:19:22;;;;;;;9.23;5.47;;;;;;;;;;5052615;28;20044;-75
2022/12/01 09:22:10;;;;;;;16.95;10.00;;;;;;;;;;5053279;28;20044;-74
2022/12/01 09:24:54;;;;;;;6.97;4.35;;;;;;;;;;5053522;28;20045;-76
2022/12/01 09:27:40;;;;;;;32.17;16.20;;;;;;;;;;5056794;28;20041;-78
2022/12/01 09:30:26;;;;;;;8.73;4.90;;;;;;;;;;5057458;28;20045;-76
2022/12/01 09:33:12;;;;;;;6.43;4.13;;;;;;;;;;5056735;28;20045;-77
2022/12/01 09:35:58;;;;;;;8.23;5.30;;;;;;;;;;5057150;28;20040;-76
2022/12/01 09:38:44;;;;;;;26.40;12.40;;;;;;;;;;5057490;28;20049;-76
2022/12/01 09:41:36;;;;;;;5.68;3.47;;;;;;;;;;5056819;28;20057;-79
2022/12/01 09:44:46;;;;;;;6.90;3.67;;;;;;;;;;5057329;28;20041;-79
2022/12/01 09:47:36;;;;;;;4.50;2.50;;;;;;;;;;5065088;28;20049;-78
2022/12/01 09:50:24;;;;;;;3.63;2.40;;;;;;;;;;5057065;28;20048;-77
2022/12/01 09:53:16;;;;;;;3.63;2.53;;;;;;;;;;5063474;28;20049;-77
2022/12/01 09:56:03;;;;;;;6.32;3.30;;;;;;;;;;5056399;28;20040;-77
2022/12/01 09:58:55;;;;;;;7.05;4.43;;;;;;;;;;5063762;28;20045;-75
2022/12/01 10:01:42;;;;;;;5.07;3.53;;;;;;;;;;5056097;28;20501;-75
2022/12/01 10:04:38;;;;;;;4.82;3.28;;;;;;;;;;5056498;28;20041;-79
2022/12/01 10:07:29;;;;;;;4.90;3.58;;;;;;;;;;5041518;28;20040;-79
2022/12/01 10:10:37;;;;;;;4.97;3.08;;;;;;;;;;5057088;28;20045;-78
2022/12/01 10:13:26;;;;;;;10.95;5.90;;;;;;;;;;5063052;28;20045;-80
2022/12/01 10:16:17;;;;;;;6.80;5.03;;;;;;;;;;5056019;28;20041;-79
2022/12/01 10:19:21;;;;;;;5.78;3.67;;;;;;;;;;5056812;28;20053;-79
2022/12/01 10:22:29;;;;;;;4.85;3.22;;;;;;;;;;5056285;28;20041;-78
2022/12/01 10:25:26;;;;;;;8.00;4.35;;;;;;;;;;5056167;28;20053;-76
2022/12/01 10:28:52;;;;;;;9.52;5.20;;;;;;;;;;5056196;28;20045;-77
2022/12/01 10:31:43;;;;;;;;;;;;;;;;;;5051464;28;20041;-78
2022/12/01 10:34:32;;;;;;;5.63;2.97;;;;;;;;;;5041302;28;19913;-77
2022/12/01 10:37:22;;;;;;;5.10;3.90;;;;;;;;;;5054426;28;20053;-78
2022/12/01 10:40:15;;;;;;;9.90;5.90;;;;;;;;;;5056073;28;20041;-76
2022/12/01 10:43:01;;;;;;;20.65;6.45;;;;;;;;;;5034711;28;20062;-77
2022/12/01 10:45:46;;;;;;;11.95;7.05;;;;;;;;;;5042112;28;20483;-79
2022/12/01 10:48:32;;;;;;;15.18;7.95;;;;;;;;;;5035483;28;20402;-79
2022/12/01 10:51:19;;;;;;;13.00;6.40;;;;;;;;;;5042230;28;20049;-76
2022/12/01 10:54:10;;;;;;;7.07;4.65;;;;;;;;;;5036691;28;20053;-79
2022/12/01 10:56:57;;;;;;;8.93;4.50;;;;;;;;;;5035774;28;20486;-76
2022/12/01 10:59:56;;;;;;;7.25;4.47;;;;;;;;;;5035280;28;20049;-76
2022/12/01 11:02:43;;;;;;;5.63;3.47;;;;;;;;;;5035570;28;20073;-76
2022/12/01 11:05:32;;;;;;;11.13;6.40;;;;;;;;;;5041921;28;20045;-75
2022/12/01 11:08:24;;;;;;;7.53;4.68;;;;;;;;;;5034182;28;20045;-78
2022/12/01 11:11:35;;;;;;;7.57;5.55;;;;;;;;;;5042118;28;20045;-79
2022/12/01 11:14:24;;;;;;;6.25;4.00;;;;;;;;;;5039744;28;20046;-77
2022/12/01 11:17:30;;;;;;;12.15;5.45;;;;;;;;;;5041823;28;20045;-79
2022/12/01 11:20:35;;;;;;;5.00;3.78;;;;;;;;;;5035087;28;20049;-75
2022/12/01 11:23:24;;;;;;;6.05;4.25;;;;;;;;;;5035203;28;20049;-76
2022/12/01 11:26:24;;;;;;;7.55;4.60;;;;;;;;;;5052036;28;20042;-77
2022/12/01 11:29:35;;;;;;;10.57;5.70;;;;;;;;;;5039765;28;20049;-77
2022/12/01 11:32:25;;;;;;;11.10;7.18;;;;;;;;;;5035977;28;20049;-76
2022/12/01 11:35:18;;;;;;;9.75;7.18;;;;;;;;;;5041348;28;20038;-79
2022/12/01 11:38:05;;;;;;;10.35;6.00;;;;;;;;;;5041486;28;20486;-76
2022/12/01 11:40:53;;;;;;;8.63;5.55;;;;;;;;;;5035042;28;20041;-78
2022/12/01 11:43:39;;;;;;;23.45;12.75;;;;;;;;;;5046792;28;20489;-79
2022/12/01 11:46:31;;;;;;;13.35;8.27;;;;;;;;;;5061415;28;20397;-76
2022/12/01 11:49:23;;;;;;;20.52;11.60;;;;;;;;;;5053790;28;20045;-76
2022/12/01 11:52:31;;;;;;;21.80;11.55;;;;;;;;;;5060850;28;20053;-79
2022/12/01 11:55:26;;;;;;;17.45;9.57;;;;;;;;;;5054604;28;20394;-77
2022/12/01 11:58:12;;;;;;;17.30;9.48;;;;;;;;;;5054348;28;20490;-76
2022/12/01 12:00:57;;;;;;;16.55;9.05;;;;;;;;;;5061202;28;20044;-78
2022/12/01 12:04:23;;;;;;;18.17;9.80;;;;;;;;;;5053546;28;20048;-75
2022/12/01 12:07:20;;;;;;;26.40;14.93;;;;;;;;;;5027789;28;20037;-76
2022/12/01 12:10:19;;;;;;;37.67;20.30;;;;;;;;;;5060559;28;20044;-77
2022/12/01 12:13:14;;;;;;;28.27;13.57;;;;;;;;;;5054238;28;20056;-76
2022/12/01 12:16:15;;;;;;;224.67;83.37;;;;;;;;;;5054241;28;20121;-76
2022/12/01 12:19:17;;;;;;;201.95;78.47;;;;;;;;;;5053900;28;20049;-77
2022/12/01 12:22:39;;;;;;;105.25;61.45;;;;;;;;;;5054344;28;20052;-76
2022/12/01 12:25:27;;;;;;;45.55;29.10;;;;;;;;;;5053491;28;20401;-77
2022/12/01 12:28:37;;;;;;;93.70;33.15;;;;;;;;;;5053965;28;20048;-76
2022/12/01 12:31:33;;;;;;;23.75;11.18;;;;;;;;;;5052346;28;20485;-77
2022/12/01 12:34:54;;;;;;;19.05;12.70;;;;;;;;;;5053901;28;20053;-79
2022/12/01 12:37:58;;;;;;;14.35;8.57;;;;;;;;;;5054056;28;20037;-79
2022/12/01 12:40:51;;;;;;;22.52;13.75;;;;;;;;;;5053556;28;20041;-76
2022/12/01 12:44:03;;;;;;;57.85;31.70;;;;;;;;;;5053337;28;20402;-77
2022/12/01 12:47:30;;;;;;;78.47;26.13;;;;;;;;;;5052688;28;20053;-76
2022/12/01 12:50:36;;;;;;;37.65;19.92;;;;;;;;;;5045385;28;20033;-78
2022/12/01 12:53:26;;;;;;;40.92;24.25;;;;;;;;;;5053090;28;20041;-78
2022/12/01 12:56:14;;;;;;;23.70;14.43;;;;;;;;;;5053621;28;20041;-78
2022/12/01 12:59:13;;;;;;;19.00;11.50;;;;;;;;;;5060596;28;20049;-76
2022/12/01 13:02:25;;;;;;;22.42;13.25;;;;;;;;;;5059844;28;20398;-77
2022/12/01 13:05:20;;;;;;;19.45;12.30;;;;;;;;;;5053868;28;20401;-78
2022/12/01 13:08:18;;;;;;;70.63;36.45;;;;;;;;;;5059885;28;20041;-76
2022/12/01 13:11:19;;;;;;;35.17;18.95;;;;;;;;;;5053716;28;20041;-76
2022/12/01 13:14:21;;;;;;;23.88;13.88;;;;;;;;;;5053062;28;20409;-78
2022/12/01 13:17:17;;;;;;;19.67;10.75;;;;;;;;;;5059618;28;20049;-75
2022/12/01 13:20:05;;;;;;;26.08;15.52;;;;;;;;;;5053171;28;20497;-77
2022/12/01 13:22:51;;;;;;;29.17;19.05;;;;;;;;;;5044592;28;20049;-78
2022/12/01 13:25:39;;;;;;;25.45;13.85;;;;;;;;;;5060332;28;20037;-76
2022/12/01 13:28:28;;;;;;;25.48;14.25;;;;;;;;;;5052357;28;20394;-78
2022/12/01 13:31:15;;;;;;;18.67;10.00;;;;;;;;;;5053209;28;20040;-76
2022/12/01 13:34:05;;;;;;;38.47;20.80;;;;;;;;;;5059927;28;20049;-77
2022/12/01 13:36:52;;;;;;;24.88;15.88;;;;;;;;;;5052732;28;20045;-79
2022/12/01 13:39:40;;;;;;;34.22;20.98;;;;;;;;;;5054149;28;20053;-76
2022/12/01 13:42:26;;;;;;;22.85;12.70;;;;;;;;;;5067648;28;20067;-80
2022/12/01 13:45:19;;;;;;;35.50;17.75;;;;;;;;;;5059388;28;20049;-79
2022/12/01 13:48:25;;;;;;;27.65;15.73;;;;;;;;;;5052712;28;20045;-78
2022/12/01 13:51:10;;;;;;;28.73;17.08;;;;;;;;;;5052589;28;20040;-78
2022/12/01 13:54:26;;;;;;;16.77;10.68;;;;;;;;;;5053040;28;20049;-75
2022/12/01 13:57:12;;;;;;;19.45;11.10;;;;;;;;;;5020373;28;20044;-79
2022/12/01 13:59:57;;;;;;;28.23;18.33;;;;;;;;;;5053351;28;20402;-77
2022/12/01 14:02:43;;;;;;;46.45;29.70;;;;;;;;;;5052782;28;20049;-76
2022/12/01 14:05:41;;;;;;;37.63;23.80;;;;;;;;;;5052479;28;20045;-78
2022/12/01 14:08:29;;;;;;;22.52;14.65;;;;;;;;;;5052817;28;20049;-78
2022/12/01 14:11:25;;;;;;;52.33;27.80;;;;;;;;;;5052520;28;20049;-78
2022/12/01 14:14:21;;;;;;;21.40;11.48;;;;;;;;;;5056396;28;20053;-77
2022/12/01 14:17:23;;;;;;;27.98;18.20;;;;;;;;;;5055950;28;20045;-78
2022/12/01 14:20:21;;;;;;;27.17;13.15;;;;;;;;;;5056319;28;20045;-79
2022/12/01 14:23:14;;;;;;;26.98;14.60;;;;;;;;;;5056113;28;20490;-77
2022/12/01 14:26:18;;;;;;;35.10;21.00;;;;;;;;;;5055878;28;20045;-76
2022/12/01 14:29:03;;;;;;;39.30;24.60;;;;;;;;;;5062686;28;20049;-77
2022/12/01 14:32:08;;;;;;;25.17;14.82;;;;;;;;;;5055660;28;20045;-76
2022/12/01 14:34:57;;;;;;;37.70;19.15;;;;;;;;;;5052840;28;20061;-74
2022/12/01 14:37:45;;;;;;;37.67;19.20;;;;;;;;;;5056170;28;20048;-77
2022/12/01 14:40:30;;;;;;;45.33;27.05;;;;;;;;;;5062349;28;20045;-77
2022/12/01 14:46:26;;;;;;;65.30;22.35;;;;;;;;;;5055117;28;20036;-76
2022/12/01 14:49:16;;;;;;;30.75;15.25;;;;;;;;;;5062430;28;20049;-76
2022/12/01 14:52:16;;;;;;;25.05;14.07;;;;;;;;;;5055993;28;20048;-79
2022/12/01 14:55:11;;;;;;;18.08;12.18;;;;;;;;;;5054892;28;20394;-75
2022/12/01 14:58:05;;;;;;;19.42;11.93;;;;;;;;;;5055939;28;20045;-77
2022/12/01 15:01:00;;;;;;;35.38;23.98;;;;;;;;;;5054842;28;20041;-78
2022/12/01 15:03:50;;;;;;;17.67;12.80;;;;;;;;;;5058349;28;20053;-78
2022/12/01 15:06:36;;;;;;;18.27;11.13;;;;;;;;;;5055680;28;20033;-77
2022/12/01 15:09:23;;;;;;;27.92;18.10;;;;;;;;;;5054805;28;20045;-76
2022/12/01 15:12:25;;;;;;;21.40;11.57;;;;;;;;;;5061933;28;20394;-76
2022/12/01 15:15:14;;;;;;;24.23;13.60;;;;;;;;;;5054770;28;20045;-76
2022/12/01 15:18:00;;;;;;;164.48;70.65;;;;;;;;;;5055330;28;20053;-75
2022/12/01 15:20:48;;;;;;;47.42;25.15;;;;;;;;;;5062064;28;20045;-77
2022/12/01 15:23:33;;;;;;;34.85;20.20;;;;;;;;;;5054097;28;20052;-77
2022/12/01 15:26:21;;;;;;;64.82;21.80;;;;;;;;;;5062231;28;20049;-79
2022/12/01 15:29:20;;;;;;;59.35;28.95;;;;;;;;;;5061886;28;20041;-78
2022/12/01 15:32:07;;;;;;;37.85;20.05;;;;;;;;;;5081863;28;20040;-79
2022/12/01 15:34:54;;;;;;;64.38;33.30;;;;;;;;;;5071390;28;20398;-79
2022/12/01 15:37:42;;;;;;;38.50;20.70;;;;;;;;;;5061385;28;20048;-78
2022/12/01 15:40:30;;;;;;;30.98;16.25;;;;;;;;;;5055316;28;20045;-77
2022/12/01 15:43:21;;;;;;;38.65;20.65;;;;;;;;;;5054093;28;20053;-76
2022/12/01 15:46:16;;;;;;;46.80;25.38;;;;;;;;;;5054418;28;20049;-78
2022/12/01 15:49:28;;;;;;;26.73;16.13;;;;;;;;;;5054759;28;20041;-79
2022/12/01 15:52:15;;;;;;;21.58;13.13;;;;;;;;;;5054019;28;20044;-78
2022/12/01 15:55:03;;;;;;;18.80;11.13;;;;;;;;;;5054831;28;20454;-77
2022/12/01 15:57:47;;;;;;;37.80;19.25;;;;;;;;;;5069892;28;20048;-79
2022/12/01 16:00:34;;;;;;;32.72;16.80;;;;;;;;;;5057680;28;20053;-77
2022/12/01 16:03:19;;;;;;;26.08;13.57;;;;;;;;;;5054331;28;20032;-77
2022/12/01 16:06:12;;;;;;;30.40;16.50;;;;;;;;;;5053724;28;20041;-78
2022/12/01 16:09:18;;;;;;;31.85;17.23;;;;;;;;;;5053951;28;20045;-78
2022/12/01 16:12:26;;;;;;;25.35;14.25;;;;;;;;;;5045382;28;20053;-76
2022/12/01 16:15:17;;;;;;;29.95;14.40;;;;;;;;;;5060701;28;20045;-78
2022/12/01 16:18:28;;;;;;;38.13;20.35;;;;;;;;;;5054022;28;20053;-79
2022/12/01 16:21:15;;;;;;;63.60;31.55;;;;;;;;;;5054035;28;20053;-78
2022/12/01 16:24:04;;;;;;;22.55;13.43;;;;;;;;;;5053586;28;20049;-79
2022/12/01 16:26:55;;;;;;;189.50;79.43;;;;;;;;;;5053493;28;20052;-77
2022/12/01 16:29:57;;;;;;;45.70;27.98;;;;;;;;;;5054046;28;20049;-77
2022/12/01 16:32:43;;;;;;;24.52;14.25;;;;;;;;;;5053819;28;20040;-76
2022/12/01 16:35:30;;;;;;;34.55;18.63;;;;;;;;;;5052624;28;20045;-79
2022/12/01 16:38:21;;;;;;;29.88;16.88;;;;;;;;;;5053659;28;20402;-76
2022/12/01 16:41:27;;;;;;;18.35;12.00;;;;;;;;;;5053251;28;20049;-78
2022/12/01 16:44:14;;;;;;;21.17;12.35;;;;;;;;;;5053336;28;20048;-76
2022/12/01 16:46:59;;;;;;;20.90;11.75;;;;;;;;;;5060121;28;20036;-79
2022/12/01 16:49:45;;;;;;;20.15;12.43;;;;;;;;;;5063158;28;20045;-81
2022/12/01 16:52:31;;;;;;;18.95;11.68;;;;;;;;;;5053801;28;20041;-82
2022/12/01 16:55:24;;;;;;;23.08;15.13;;;;;;;;;;5053005;28;20513;-81
2022/12/01 16:58:10;;;;;;;16.60;9.75;;;;;;;;;;5053748;28;20053;-82
2022/12/01 17:00:55;;;;;;;25.60;13.80;;;;;;;;;;5054294;28;20049;-79
2022/12/01 17:03:41;;;;;;;18.98;10.10;;;;;;;;;;5053535;28;20048;-83